sensor_id;sensor_type;location;lat;lon;timestamp;temperature;humidity
13253;DHT22;6693;54.370;10.132;2022-08-11T00:01:24;23.40;1.00
13253;DHT22;6693;54.370;10.132;2022-08-11T00:03:26;23.40;1.00
13253;DHT22;6693;54.370;10.132;2022-08-11T00:05:28;23.30;1.00
13253;DHT22;6693;54.370;10.132;2022-08-11T00:07:30;23.30;1.00
13253;DHT22;6693;54.370;10.132;2022-08-11T00:09:35;23.30;1.00
13253;DHT22;6693;54.370;10.132;2022-08-11T00:11:40;23.30;1.00
13253;DHT22;6693;54.370;10.132;2022-08-11T00:13:45;23.30;1.00
13253;DHT22;6693;54.370;10.132;2022-08-11T00:15:48;23.30;1.00
13253;DHT22;6693;54.370;10.132;2022-08-11T00:17:55;23.30;1.00
13253;DHT22;6693;54.370;10.132;2022-08-11T00:20:04;23.20;15.70
13253;DHT22;6693;54.370;10.132;2022-08-11T00:22:09;23.20;8.10
13253;DHT22;6693;54.370;10.132;2022-08-11T00:24:11;23.30;36.50
13253;DHT22;6693;54.370;10.132;2022-08-11T00:26:14;23.30;40.60
13253;DHT22;6693;54.370;10.132;2022-08-11T00:28:24;23.30;53.40
13253;DHT22;6693;54.370;10.132;2022-08-11T00:30:37;23.30;73.30
13253;DHT22;6693;54.370;10.132;2022-08-11T00:32:43;23.30;93.40
13253;DHT22;6693;54.370;10.132;2022-08-11T00:34:46;23.20;87.20
13253;DHT22;6693;54.370;10.132;2022-08-11T00:36:50;23.20;97.50
13253;DHT22;6693;54.370;10.132;2022-08-11T00:38:53;23.10;99.90
13253;DHT22;6693;54.370;10.132;2022-08-11T00:41:02;23.10;99.90
13253;DHT22;6693;54.370;10.132;2022-08-11T00:43:14;23.10;99.90
13253;DHT22;6693;54.370;10.132;2022-08-11T00:45:22;23.20;99.90
13253;DHT22;6693;54.370;10.132;2022-08-11T00:47:37;23.10;99.90
13253;DHT22;6693;54.370;10.132;2022-08-11T00:49:51;23.00;99.90
13253;DHT22;6693;54.370;10.132;2022-08-11T00:52:05;23.00;99.90
13253;DHT22;6693;54.370;10.132;2022-08-11T00:54:26;23.10;99.90
13253;DHT22;6693;54.370;10.132;2022-08-11T00:59:29;23.00;99.90
13253;DHT22;6693;54.370;10.132;2022-08-11T01:01:54;23.00;99.90
13253;DHT22;6693;54.370;10.132;2022-08-11T01:06:46;22.90;99.90
13253;DHT22;6693;54.370;10.132;2022-08-11T01:09:13;22.80;99.90
13253;DHT22;6693;54.370;10.132;2022-08-11T01:11:52;22.70;99.90
13253;DHT22;6693;54.370;10.132;2022-08-11T01:14:24;22.70;99.90
13253;DHT22;6693;54.370;10.132;2022-08-11T01:22:14;22.70;99.90
13253;DHT22;6693;54.370;10.132;2022-08-11T01:24:45;22.70;99.90
13253;DHT22;6693;54.370;10.132;2022-08-11T01:27:13;22.70;1.00
13253;DHT22;6693;54.370;10.132;2022-08-11T01:29:58;22.70;1.00
13253;DHT22;6693;54.370;10.132;2022-08-11T01:32:31;22.60;1.00
13253;DHT22;6693;54.370;10.132;2022-08-11T01:37:55;22.50;1.00
13253;DHT22;6693;54.370;10.132;2022-08-11T01:40:24;22.50;1.00
13253;DHT22;6693;54.370;10.132;2022-08-11T01:42:56;22.50;1.00
13253;DHT22;6693;54.370;10.132;2022-08-11T01:45:29;22.50;1.00
13253;DHT22;6693;54.370;10.132;2022-08-11T01:47:39;22.50;1.00
13253;DHT22;6693;54.370;10.132;2022-08-11T01:50:00;23.20;1.00
13253;DHT22;6693;54.370;10.132;2022-08-11T01:52:11;22.40;1.00
13253;DHT22;6693;54.370;10.132;2022-08-11T01:54:20;22.40;1.00
13253;DHT22;6693;54.370;10.132;2022-08-11T01:56:37;22.40;1.00
13253;DHT22;6693;54.370;10.132;2022-08-11T01:58:47;22.30;1.00
13253;DHT22;6693;54.370;10.132;2022-08-11T02:00:53;22.40;1.00
13253;DHT22;6693;54.370;10.132;2022-08-11T02:03:05;22.40;1.00
13253;DHT22;6693;54.370;10.132;2022-08-11T02:05:16;22.30;1.00
13253;DHT22;6693;54.370;10.132;2022-08-11T02:07:27;22.40;1.00
13253;DHT22;6693;54.370;10.132;2022-08-11T02:09:44;22.40;1.00
13253;DHT22;6693;54.370;10.132;2022-08-11T02:11:57;22.30;1.00
13253;DHT22;6693;54.370;10.132;2022-08-11T02:14:08;22.30;1.00
13253;DHT22;6693;54.370;10.132;2022-08-11T02:16:20;22.30;1.00
13253;DHT22;6693;54.370;10.132;2022-08-11T02:18:24;22.30;1.00
13253;DHT22;6693;54.370;10.132;2022-08-11T02:20:54;22.30;1.00
13253;DHT22;6693;54.370;10.132;2022-08-11T02:23:24;22.30;1.00
13253;DHT22;6693;54.370;10.132;2022-08-11T02:25:48;22.20;19.80
13253;DHT22;6693;54.370;10.132;2022-08-11T02:27:55;22.30;13.10
13253;DHT22;6693;54.370;10.132;2022-08-11T02:30:03;22.30;42.70
13253;DHT22;6693;54.370;10.132;2022-08-11T02:32:13;22.30;57.60
13253;DHT22;6693;54.370;10.132;2022-08-11T02:34:45;22.30;85.10
13253;DHT22;6693;54.370;10.132;2022-08-11T02:36:54;22.30;99.90
13253;DHT22;6693;54.370;10.132;2022-08-11T02:39:02;22.20;99.90
13253;DHT22;6693;54.370;10.132;2022-08-11T02:41:13;22.20;99.90
13253;DHT22;6693;54.370;10.132;2022-08-11T02:43:40;22.20;99.90
13253;DHT22;6693;54.370;10.132;2022-08-11T02:45:50;22.20;99.90
13253;DHT22;6693;54.370;10.132;2022-08-11T02:48:00;22.20;99.90
13253;DHT22;6693;54.370;10.132;2022-08-11T02:50:24;22.20;99.90
13253;DHT22;6693;54.370;10.132;2022-08-11T02:52:36;22.20;99.90
13253;DHT22;6693;54.370;10.132;2022-08-11T02:54:46;22.20;99.90
13253;DHT22;6693;54.370;10.132;2022-08-11T02:56:57;22.20;99.90
13253;DHT22;6693;54.370;10.132;2022-08-11T02:59:05;22.20;99.90
13253;DHT22;6693;54.370;10.132;2022-08-11T03:01:38;22.20;99.90
13253;DHT22;6693;54.370;10.132;2022-08-11T03:03:48;22.20;99.90
13253;DHT22;6693;54.370;10.132;2022-08-11T03:05:58;22.20;99.90
13253;DHT22;6693;54.370;10.132;2022-08-11T03:08:12;22.10;99.90
13253;DHT22;6693;54.370;10.132;2022-08-11T03:10:21;22.10;99.90
13253;DHT22;6693;54.370;10.132;2022-08-11T03:12:32;22.10;99.90
13253;DHT22;6693;54.370;10.132;2022-08-11T03:14:57;22.10;1.00
13253;DHT22;6693;54.370;10.132;2022-08-11T03:17:26;22.20;1.00
13253;DHT22;6693;54.370;10.132;2022-08-11T03:19:36;22.10;1.00
13253;DHT22;6693;54.370;10.132;2022-08-11T03:21:45;22.10;1.00
13253;DHT22;6693;54.370;10.132;2022-08-11T03:23:54;22.10;1.00
13253;DHT22;6693;54.370;10.132;2022-08-11T03:26:06;22.10;1.00
13253;DHT22;6693;54.370;10.132;2022-08-11T03:28:20;22.00;1.00
13253;DHT22;6693;54.370;10.132;2022-08-11T03:30:38;22.00;1.00
13253;DHT22;6693;54.370;10.132;2022-08-11T03:32:56;21.90;1.00
13253;DHT22;6693;54.370;10.132;2022-08-11T03:35:17;21.90;1.00
13253;DHT22;6693;54.370;10.132;2022-08-11T03:37:40;21.90;1.00
13253;DHT22;6693;54.370;10.132;2022-08-11T03:39:56;21.90;1.00
13253;DHT22;6693;54.370;10.132;2022-08-11T03:42:08;22.00;1.00
13253;DHT22;6693;54.370;10.132;2022-08-11T03:44:40;21.90;1.00
13253;DHT22;6693;54.370;10.132;2022-08-11T03:46:55;21.90;1.00
13253;DHT22;6693;54.370;10.132;2022-08-11T03:49:11;21.90;1.00
13253;DHT22;6693;54.370;10.132;2022-08-11T03:51:21;21.90;1.00
13253;DHT22;6693;54.370;10.132;2022-08-11T03:53:38;21.90;1.00
13253;DHT22;6693;54.370;10.132;2022-08-11T03:56:11;21.90;1.00
13253;DHT22;6693;54.370;10.132;2022-08-11T03:58:37;21.80;1.00
13253;DHT22;6693;54.370;10.132;2022-08-11T04:03:43;21.90;1.00
13253;DHT22;6693;54.370;10.132;2022-08-11T04:06:25;21.90;1.00
13253;DHT22;6693;54.370;10.132;2022-08-11T04:09:12;21.90;1.00
13253;DHT22;6693;54.370;10.132;2022-08-11T04:11:41;21.90;1.00
13253;DHT22;6693;54.370;10.132;2022-08-11T04:14:22;21.90;5.20
13253;DHT22;6693;54.370;10.132;2022-08-11T04:16:46;21.90;52.20
13253;DHT22;6693;54.370;10.132;2022-08-11T04:19:28;21.90;65.20
13253;DHT22;6693;54.370;10.132;2022-08-11T04:21:56;21.90;99.90
13253;DHT22;6693;54.370;10.132;2022-08-11T04:24:26;22.00;99.90
13253;DHT22;6693;54.370;10.132;2022-08-11T04:26:52;22.00;99.90
13253;DHT22;6693;54.370;10.132;2022-08-11T04:29:03;21.90;99.90
13253;DHT22;6693;54.370;10.132;2022-08-11T04:31:25;22.00;99.90
13253;DHT22;6693;54.370;10.132;2022-08-11T04:33:57;22.00;99.90
13253;DHT22;6693;54.370;10.132;2022-08-11T04:36:12;22.00;99.90
13253;DHT22;6693;54.370;10.132;2022-08-11T04:39:01;22.10;99.90
13253;DHT22;6693;54.370;10.132;2022-08-11T04:41:50;22.00;99.90
13253;DHT22;6693;54.370;10.132;2022-08-11T04:44:40;22.10;99.90
13253;DHT22;6693;54.370;10.132;2022-08-11T04:46:58;22.10;99.90
13253;DHT22;6693;54.370;10.132;2022-08-11T04:52:27;22.20;99.90
13253;DHT22;6693;54.370;10.132;2022-08-11T04:55:19;22.30;99.90
13253;DHT22;6693;54.370;10.132;2022-08-11T04:57:48;22.30;1.00
13253;DHT22;6693;54.370;10.132;2022-08-11T05:00:10;22.30;1.00
13253;DHT22;6693;54.370;10.132;2022-08-11T05:03:02;22.40;1.00
13253;DHT22;6693;54.370;10.132;2022-08-11T05:05:18;22.40;1.00
13253;DHT22;6693;54.370;10.132;2022-08-11T05:08:15;22.40;1.00
13253;DHT22;6693;54.370;10.132;2022-08-11T05:10:27;22.50;1.00
13253;DHT22;6693;54.370;10.132;2022-08-11T05:12:41;22.50;1.00
13253;DHT22;6693;54.370;10.132;2022-08-11T05:14:48;22.60;1.00
13253;DHT22;6693;54.370;10.132;2022-08-11T05:17:10;22.70;1.00
13253;DHT22;6693;54.370;10.132;2022-08-11T05:19:31;22.70;1.00
13253;DHT22;6693;54.370;10.132;2022-08-11T05:21:56;22.70;1.00
13253;DHT22;6693;54.370;10.132;2022-08-11T05:24:19;22.70;1.00
13253;DHT22;6693;54.370;10.132;2022-08-11T05:26:45;22.80;1.00
13253;DHT22;6693;54.370;10.132;2022-08-11T05:29:25;22.80;1.00
13253;DHT22;6693;54.370;10.132;2022-08-11T05:31:49;22.90;1.00
13253;DHT22;6693;54.370;10.132;2022-08-11T05:34:11;23.00;1.00
13253;DHT22;6693;54.370;10.132;2022-08-11T05:36:38;23.10;1.00
13253;DHT22;6693;54.370;10.132;2022-08-11T05:38:53;23.20;1.00
13253;DHT22;6693;54.370;10.132;2022-08-11T05:41:14;23.20;1.00
13253;DHT22;6693;54.370;10.132;2022-08-11T05:43:40;23.30;1.00
13253;DHT22;6693;54.370;10.132;2022-08-11T05:46:02;23.40;1.00
13253;DHT22;6693;54.370;10.132;2022-08-11T05:48:21;23.40;1.00
13253;DHT22;6693;54.370;10.132;2022-08-11T05:50:51;23.40;1.00
13253;DHT22;6693;54.370;10.132;2022-08-11T05:53:12;23.50;1.00
13253;DHT22;6693;54.370;10.132;2022-08-11T05:55:38;23.50;1.00
13253;DHT22;6693;54.370;10.132;2022-08-11T05:58:01;23.60;1.00
13253;DHT22;6693;54.370;10.132;2022-08-11T06:00:06;23.60;1.00
13253;DHT22;6693;54.370;10.132;2022-08-11T06:02:09;23.70;1.00
13253;DHT22;6693;54.370;10.132;2022-08-11T06:04:17;23.80;1.00
13253;DHT22;6693;54.370;10.132;2022-08-11T06:06:20;23.80;1.00
13253;DHT22;6693;54.370;10.132;2022-08-11T06:08:27;23.80;1.00
13253;DHT22;6693;54.370;10.132;2022-08-11T06:10:32;23.90;1.00
13253;DHT22;6693;54.370;10.132;2022-08-11T06:12:35;23.90;1.00
13253;DHT22;6693;54.370;10.132;2022-08-11T06:14:42;24.00;1.00
13253;DHT22;6693;54.370;10.132;2022-08-11T06:16:47;24.10;1.00
13253;DHT22;6693;54.370;10.132;2022-08-11T06:18:49;24.10;1.00
13253;DHT22;6693;54.370;10.132;2022-08-11T06:20:53;24.30;1.00
13253;DHT22;6693;54.370;10.132;2022-08-11T06:22:58;24.30;1.00
13253;DHT22;6693;54.370;10.132;2022-08-11T06:25:04;24.30;1.00
13253;DHT22;6693;54.370;10.132;2022-08-11T06:27:07;24.40;1.00
13253;DHT22;6693;54.370;10.132;2022-08-11T06:29:11;24.40;99.90
13253;DHT22;6693;54.370;10.132;2022-08-11T06:31:19;24.50;99.90
13253;DHT22;6693;54.370;10.132;2022-08-11T06:33:30;25.60;99.90
13253;DHT22;6693;54.370;10.132;2022-08-11T06:35:37;24.60;99.90
13253;DHT22;6693;54.370;10.132;2022-08-11T06:37:56;24.70;99.90
13253;DHT22;6693;54.370;10.132;2022-08-11T06:40:06;24.70;99.90
13253;DHT22;6693;54.370;10.132;2022-08-11T06:42:12;24.70;99.90
13253;DHT22;6693;54.370;10.132;2022-08-11T06:44:23;24.80;99.90
13253;DHT22;6693;54.370;10.132;2022-08-11T06:46:30;24.80;99.90
13253;DHT22;6693;54.370;10.132;2022-08-11T06:48:33;24.80;34.80
13253;DHT22;6693;54.370;10.132;2022-08-11T06:50:35;24.80;1.00
13253;DHT22;6693;54.370;10.132;2022-08-11T06:52:55;24.80;1.00
13253;DHT22;6693;54.370;10.132;2022-08-11T06:55:03;24.80;1.00
13253;DHT22;6693;54.370;10.132;2022-08-11T06:57:11;24.80;1.00
13253;DHT22;6693;54.370;10.132;2022-08-11T06:59:33;24.90;1.00
13253;DHT22;6693;54.370;10.132;2022-08-11T07:01:59;24.90;1.00
13253;DHT22;6693;54.370;10.132;2022-08-11T07:04:08;24.80;1.00
13253;DHT22;6693;54.370;10.132;2022-08-11T07:06:27;24.90;1.00
13253;DHT22;6693;54.370;10.132;2022-08-11T07:08:54;24.90;1.00
13253;DHT22;6693;54.370;10.132;2022-08-11T07:11:57;24.90;1.00
13253;DHT22;6693;54.370;10.132;2022-08-11T07:14:22;25.00;1.00
13253;DHT22;6693;54.370;10.132;2022-08-11T07:16:43;25.40;1.00
13253;DHT22;6693;54.370;10.132;2022-08-11T07:18:47;25.50;1.00
13253;DHT22;6693;54.370;10.132;2022-08-11T07:21:14;25.70;1.00
13253;DHT22;6693;54.370;10.132;2022-08-11T07:23:35;25.70;1.00
13253;DHT22;6693;54.370;10.132;2022-08-11T07:25:57;25.70;1.00
13253;DHT22;6693;54.370;10.132;2022-08-11T07:28:22;25.80;1.00
13253;DHT22;6693;54.370;10.132;2022-08-11T07:30:43;26.00;1.00
13253;DHT22;6693;54.370;10.132;2022-08-11T07:32:49;26.00;1.00
13253;DHT22;6693;54.370;10.132;2022-08-11T07:34:57;26.10;1.00
13253;DHT22;6693;54.370;10.132;2022-08-11T07:37:03;26.30;1.00
13253;DHT22;6693;54.370;10.132;2022-08-11T07:39:15;26.40;99.90
13253;DHT22;6693;54.370;10.132;2022-08-11T07:41:21;26.40;99.90
13253;DHT22;6693;54.370;10.132;2022-08-11T07:43:23;26.50;99.90
13253;DHT22;6693;54.370;10.132;2022-08-11T07:45:26;26.50;99.90
13253;DHT22;6693;54.370;10.132;2022-08-11T07:47:47;26.40;68.20
13253;DHT22;6693;54.370;10.132;2022-08-11T07:50:08;26.60;78.80
13253;DHT22;6693;54.370;10.132;2022-08-11T07:52:29;26.90;53.50
13253;DHT22;6693;54.370;10.132;2022-08-11T07:54:34;27.10;1.00
13253;DHT22;6693;54.370;10.132;2022-08-11T07:56:37;27.10;1.00
13253;DHT22;6693;54.370;10.132;2022-08-11T07:58:39;27.30;1.00
13253;DHT22;6693;54.370;10.132;2022-08-11T08:00:59;27.50;1.00
13253;DHT22;6693;54.370;10.132;2022-08-11T08:03:20;27.60;1.00
13253;DHT22;6693;54.370;10.132;2022-08-11T08:05:40;27.50;1.00
13253;DHT22;6693;54.370;10.132;2022-08-11T08:08:00;27.70;1.00
13253;DHT22;6693;54.370;10.132;2022-08-11T08:10:20;27.90;1.00
13253;DHT22;6693;54.370;10.132;2022-08-11T08:12:41;28.10;1.00
13253;DHT22;6693;54.370;10.132;2022-08-11T08:15:04;28.40;1.00
13253;DHT22;6693;54.370;10.132;2022-08-11T08:17:25;28.30;99.90
13253;DHT22;6693;54.370;10.132;2022-08-11T08:19:47;28.30;99.90
13253;DHT22;6693;54.370;10.132;2022-08-11T08:21:50;28.20;99.90
13253;DHT22;6693;54.370;10.132;2022-08-11T08:23:52;28.20;99.90
13253;DHT22;6693;54.370;10.132;2022-08-11T08:26:02;28.20;99.90
13253;DHT22;6693;54.370;10.132;2022-08-11T08:28:08;28.40;99.90
13253;DHT22;6693;54.370;10.132;2022-08-11T08:30:12;28.70;99.90
13253;DHT22;6693;54.370;10.132;2022-08-11T08:32:31;28.70;25.40
13253;DHT22;6693;54.370;10.132;2022-08-11T08:34:36;28.70;1.00
13253;DHT22;6693;54.370;10.132;2022-08-11T08:36:42;28.70;1.00
13253;DHT22;6693;54.370;10.132;2022-08-11T08:38:47;28.80;1.00
13253;DHT22;6693;54.370;10.132;2022-08-11T08:40:51;28.80;1.00
13253;DHT22;6693;54.370;10.132;2022-08-11T08:42:58;29.00;1.00
13253;DHT22;6693;54.370;10.132;2022-08-11T08:45:05;29.20;1.00
13253;DHT22;6693;54.370;10.132;2022-08-11T08:47:11;29.30;1.00
13253;DHT22;6693;54.370;10.132;2022-08-11T08:49:17;29.50;1.00
13253;DHT22;6693;54.370;10.132;2022-08-11T08:51:21;29.60;1.00
13253;DHT22;6693;54.370;10.132;2022-08-11T08:53:39;29.70;1.00
13253;DHT22;6693;54.370;10.132;2022-08-11T08:55:44;30.10;1.00
13253;DHT22;6693;54.370;10.132;2022-08-11T08:57:48;30.30;1.00
13253;DHT22;6693;54.370;10.132;2022-08-11T08:59:52;30.50;1.00
13253;DHT22;6693;54.370;10.132;2022-08-11T09:01:57;30.30;1.00
13253;DHT22;6693;54.370;10.132;2022-08-11T09:04:00;29.90;1.00
13253;DHT22;6693;54.370;10.132;2022-08-11T09:06:02;30.00;1.00
13253;DHT22;6693;54.370;10.132;2022-08-11T09:08:04;30.30;1.00
13253;DHT22;6693;54.370;10.132;2022-08-11T09:10:09;30.60;1.00
13253;DHT22;6693;54.370;10.132;2022-08-11T09:12:12;30.80;1.00
13253;DHT22;6693;54.370;10.132;2022-08-11T09:14:15;31.00;1.00
13253;DHT22;6693;54.370;10.132;2022-08-11T09:16:17;30.80;1.00
13253;DHT22;6693;54.370;10.132;2022-08-11T09:18:19;31.00;99.90
13253;DHT22;6693;54.370;10.132;2022-08-11T09:20:24;30.90;99.90
13253;DHT22;6693;54.370;10.132;2022-08-11T09:22:26;30.60;99.90
13253;DHT22;6693;54.370;10.132;2022-08-11T09:24:47;30.70;99.90
13253;DHT22;6693;54.370;10.132;2022-08-11T09:27:09;30.50;99.90
13253;DHT22;6693;54.370;10.132;2022-08-11T09:29:11;30.90;99.90
13253;DHT22;6693;54.370;10.132;2022-08-11T09:31:14;30.90;99.90
13253;DHT22;6693;54.370;10.132;2022-08-11T09:33:16;30.90;99.90
13253;DHT22;6693;54.370;10.132;2022-08-11T09:35:20;31.10;99.90
13253;DHT22;6693;54.370;10.132;2022-08-11T09:37:22;31.40;99.90
13253;DHT22;6693;54.370;10.132;2022-08-11T09:39:42;31.70;99.90
13253;DHT22;6693;54.370;10.132;2022-08-11T09:42:02;32.10;99.90
13253;DHT22;6693;54.370;10.132;2022-08-11T09:44:06;32.30;99.90
13253;DHT22;6693;54.370;10.132;2022-08-11T09:46:26;32.50;99.90
13253;DHT22;6693;54.370;10.132;2022-08-11T09:48:31;32.70;99.90
13253;DHT22;6693;54.370;10.132;2022-08-11T09:50:35;32.80;99.90
13253;DHT22;6693;54.370;10.132;2022-08-11T09:52:39;32.90;99.90
13253;DHT22;6693;54.370;10.132;2022-08-11T09:54:42;32.90;99.90
13253;DHT22;6693;54.370;10.132;2022-08-11T09:56:44;33.00;99.90
13253;DHT22;6693;54.370;10.132;2022-08-11T09:59:05;33.10;99.90
13253;DHT22;6693;54.370;10.132;2022-08-11T10:01:07;33.00;99.90
13253;DHT22;6693;54.370;10.132;2022-08-11T10:03:27;33.00;99.90
13253;DHT22;6693;54.370;10.132;2022-08-11T10:05:30;33.10;99.90
13253;DHT22;6693;54.370;10.132;2022-08-11T10:07:51;33.20;99.90
13253;DHT22;6693;54.370;10.132;2022-08-11T10:09:57;33.30;99.90
13253;DHT22;6693;54.370;10.132;2022-08-11T10:12:00;33.40;95.50
13253;DHT22;6693;54.370;10.132;2022-08-11T10:14:06;33.50;65.60
13253;DHT22;6693;54.370;10.132;2022-08-11T10:16:29;33.60;37.90
13253;DHT22;6693;54.370;10.132;2022-08-11T10:18:34;33.60;9.70
13253;DHT22;6693;54.370;10.132;2022-08-11T10:20:51;33.70;1.00
13253;DHT22;6693;54.370;10.132;2022-08-11T10:22:54;33.90;1.00
13253;DHT22;6693;54.370;10.132;2022-08-11T10:25:14;34.00;1.00
13253;DHT22;6693;54.370;10.132;2022-08-11T10:27:34;34.00;1.00
13253;DHT22;6693;54.370;10.132;2022-08-11T10:29:38;34.00;1.00
13253;DHT22;6693;54.370;10.132;2022-08-11T10:32:00;34.10;1.00
13253;DHT22;6693;54.370;10.132;2022-08-11T10:34:20;34.20;1.00
13253;DHT22;6693;54.370;10.132;2022-08-11T10:36:23;34.20;1.00
13253;DHT22;6693;54.370;10.132;2022-08-11T10:38:26;34.40;1.00
13253;DHT22;6693;54.370;10.132;2022-08-11T10:40:28;34.30;1.00
13253;DHT22;6693;54.370;10.132;2022-08-11T10:42:32;34.30;1.00
13253;DHT22;6693;54.370;10.132;2022-08-11T10:44:54;34.40;1.00
13253;DHT22;6693;54.370;10.132;2022-08-11T10:46:58;34.40;1.00
13253;DHT22;6693;54.370;10.132;2022-08-11T10:49:18;34.50;1.00
13253;DHT22;6693;54.370;10.132;2022-08-11T10:51:20;34.60;1.00
13253;DHT22;6693;54.370;10.132;2022-08-11T10:53:44;34.70;1.00
13253;DHT22;6693;54.370;10.132;2022-08-11T10:56:05;34.60;1.00
13253;DHT22;6693;54.370;10.132;2022-08-11T10:58:24;34.70;1.00
13253;DHT22;6693;54.370;10.132;2022-08-11T11:00:45;34.80;1.00
13253;DHT22;6693;54.370;10.132;2022-08-11T11:02:48;34.80;1.00
13253;DHT22;6693;54.370;10.132;2022-08-11T11:05:03;34.90;1.00
13253;DHT22;6693;54.370;10.132;2022-08-11T11:07:16;35.00;1.00
13253;DHT22;6693;54.370;10.132;2022-08-11T11:09:24;35.00;1.00
13253;DHT22;6693;54.370;10.132;2022-08-11T11:11:32;35.00;1.00
13253;DHT22;6693;54.370;10.132;2022-08-11T11:13:53;35.10;1.00
13253;DHT22;6693;54.370;10.132;2022-08-11T11:16:13;35.10;1.00
13253;DHT22;6693;54.370;10.132;2022-08-11T11:18:34;35.10;1.00
13253;DHT22;6693;54.370;10.132;2022-08-11T11:20:40;34.90;1.00
13253;DHT22;6693;54.370;10.132;2022-08-11T11:22:43;35.10;1.00
13253;DHT22;6693;54.370;10.132;2022-08-11T11:24:57;35.20;1.00
13253;DHT22;6693;54.370;10.132;2022-08-11T11:27:08;35.10;1.00
13253;DHT22;6693;54.370;10.132;2022-08-11T11:29:43;35.00;1.00
13253;DHT22;6693;54.370;10.132;2022-08-11T11:31:55;35.30;1.00
13253;DHT22;6693;54.370;10.132;2022-08-11T11:34:12;35.40;1.00
13253;DHT22;6693;54.370;10.132;2022-08-11T11:36:22;35.60;1.00
13253;DHT22;6693;54.370;10.132;2022-08-11T11:38:26;35.90;1.00
13253;DHT22;6693;54.370;10.132;2022-08-11T11:40:29;35.90;1.00
13253;DHT22;6693;54.370;10.132;2022-08-11T11:42:30;36.00;1.00
13253;DHT22;6693;54.370;10.132;2022-08-11T11:44:33;35.90;1.00
13253;DHT22;6693;54.370;10.132;2022-08-11T11:46:35;35.80;1.00
13253;DHT22;6693;54.370;10.132;2022-08-11T11:48:39;35.80;1.00
13253;DHT22;6693;54.370;10.132;2022-08-11T11:50:42;35.80;1.00
13253;DHT22;6693;54.370;10.132;2022-08-11T11:52:44;35.60;1.00
13253;DHT22;6693;54.370;10.132;2022-08-11T11:54:46;35.60;1.00
13253;DHT22;6693;54.370;10.132;2022-08-11T11:56:50;35.40;1.00
13253;DHT22;6693;54.370;10.132;2022-08-11T11:58:53;35.20;1.00
13253;DHT22;6693;54.370;10.132;2022-08-11T12:01:13;35.10;1.00
13253;DHT22;6693;54.370;10.132;2022-08-11T12:03:20;35.10;1.00
13253;DHT22;6693;54.370;10.132;2022-08-11T12:05:23;35.10;1.00
13253;DHT22;6693;54.370;10.132;2022-08-11T12:07:25;35.30;1.00
13253;DHT22;6693;54.370;10.132;2022-08-11T12:09:45;35.50;1.00
13253;DHT22;6693;54.370;10.132;2022-08-11T12:11:49;35.40;1.00
13253;DHT22;6693;54.370;10.132;2022-08-11T12:14:09;35.40;1.00
13253;DHT22;6693;54.370;10.132;2022-08-11T12:16:13;35.40;1.00
13253;DHT22;6693;54.370;10.132;2022-08-11T12:18:16;35.50;1.00
13253;DHT22;6693;54.370;10.132;2022-08-11T12:20:19;35.50;1.00
13253;DHT22;6693;54.370;10.132;2022-08-11T12:22:23;35.50;1.00
13253;DHT22;6693;54.370;10.132;2022-08-11T12:24:42;35.60;1.00
13253;DHT22;6693;54.370;10.132;2022-08-11T12:27:03;35.50;1.00
13253;DHT22;6693;54.370;10.132;2022-08-11T12:29:23;35.30;1.00
13253;DHT22;6693;54.370;10.132;2022-08-11T12:31:27;35.10;1.00
13253;DHT22;6693;54.370;10.132;2022-08-11T12:33:29;35.10;1.00
13253;DHT22;6693;54.370;10.132;2022-08-11T12:35:31;35.30;1.00
13253;DHT22;6693;54.370;10.132;2022-08-11T12:37:38;35.20;1.00
13253;DHT22;6693;54.370;10.132;2022-08-11T12:39:44;35.30;1.00
13253;DHT22;6693;54.370;10.132;2022-08-11T12:42:04;35.40;1.00
13253;DHT22;6693;54.370;10.132;2022-08-11T12:44:26;35.50;1.00
13253;DHT22;6693;54.370;10.132;2022-08-11T12:46:47;35.60;1.00
13253;DHT22;6693;54.370;10.132;2022-08-11T12:48:55;35.50;1.00
13253;DHT22;6693;54.370;10.132;2022-08-11T12:51:19;35.50;1.00
13253;DHT22;6693;54.370;10.132;2022-08-11T12:53:49;35.60;1.00
13253;DHT22;6693;54.370;10.132;2022-08-11T12:55:54;35.50;1.00
13253;DHT22;6693;54.370;10.132;2022-08-11T12:58:20;35.60;1.00
13253;DHT22;6693;54.370;10.132;2022-08-11T13:00:23;35.50;1.00
13253;DHT22;6693;54.370;10.132;2022-08-11T13:02:43;35.40;1.00
13253;DHT22;6693;54.370;10.132;2022-08-11T13:05:06;35.50;1.00
13253;DHT22;6693;54.370;10.132;2022-08-11T13:07:08;35.40;1.00
13253;DHT22;6693;54.370;10.132;2022-08-11T13:09:11;35.40;1.00
13253;DHT22;6693;54.370;10.132;2022-08-11T13:11:15;35.40;1.00
13253;DHT22;6693;54.370;10.132;2022-08-11T13:13:35;35.40;1.00
13253;DHT22;6693;54.370;10.132;2022-08-11T13:15:39;35.50;1.00
13253;DHT22;6693;54.370;10.132;2022-08-11T13:17:41;35.70;1.00
13253;DHT22;6693;54.370;10.132;2022-08-11T13:19:44;35.80;1.00
13253;DHT22;6693;54.370;10.132;2022-08-11T13:21:48;35.70;1.00
13253;DHT22;6693;54.370;10.132;2022-08-11T13:23:52;35.50;1.00
13253;DHT22;6693;54.370;10.132;2022-08-11T13:25:56;35.70;1.00
13253;DHT22;6693;54.370;10.132;2022-08-11T13:27:59;35.60;1.00
13253;DHT22;6693;54.370;10.132;2022-08-11T13:30:02;35.70;1.00
13253;DHT22;6693;54.370;10.132;2022-08-11T13:32:30;35.70;1.00
13253;DHT22;6693;54.370;10.132;2022-08-11T13:34:33;35.70;1.00
13253;DHT22;6693;54.370;10.132;2022-08-11T13:36:41;35.80;1.00
13253;DHT22;6693;54.370;10.132;2022-08-11T13:38:43;35.70;1.00
13253;DHT22;6693;54.370;10.132;2022-08-11T13:40:45;35.50;1.00
13253;DHT22;6693;54.370;10.132;2022-08-11T13:42:50;35.70;1.00
13253;DHT22;6693;54.370;10.132;2022-08-11T13:44:52;35.80;1.00
13253;DHT22;6693;54.370;10.132;2022-08-11T13:46:57;36.00;1.00
13253;DHT22;6693;54.370;10.132;2022-08-11T13:49:02;35.90;1.00
13253;DHT22;6693;54.370;10.132;2022-08-11T13:51:05;35.70;1.00
13253;DHT22;6693;54.370;10.132;2022-08-11T13:53:26;35.70;1.00
13253;DHT22;6693;54.370;10.132;2022-08-11T13:55:28;35.70;1.00
13253;DHT22;6693;54.370;10.132;2022-08-11T13:57:30;35.70;1.00
13253;DHT22;6693;54.370;10.132;2022-08-11T13:59:35;35.70;1.00
13253;DHT22;6693;54.370;10.132;2022-08-11T14:01:40;35.60;1.00
13253;DHT22;6693;54.370;10.132;2022-08-11T14:03:42;35.70;1.00
13253;DHT22;6693;54.370;10.132;2022-08-11T14:05:47;35.80;1.00
13253;DHT22;6693;54.370;10.132;2022-08-11T14:07:52;35.70;1.00
13253;DHT22;6693;54.370;10.132;2022-08-11T14:09:57;35.80;1.00
13253;DHT22;6693;54.370;10.132;2022-08-11T14:12:01;35.90;1.00
13253;DHT22;6693;54.370;10.132;2022-08-11T14:14:23;36.00;1.00
13253;DHT22;6693;54.370;10.132;2022-08-11T14:16:29;36.20;1.00
13253;DHT22;6693;54.370;10.132;2022-08-11T14:18:32;36.30;1.00
13253;DHT22;6693;54.370;10.132;2022-08-11T14:20:38;36.30;1.00
13253;DHT22;6693;54.370;10.132;2022-08-11T14:22:58;36.20;1.00
13253;DHT22;6693;54.370;10.132;2022-08-11T14:25:01;36.00;1.00
13253;DHT22;6693;54.370;10.132;2022-08-11T14:27:04;36.10;1.00
13253;DHT22;6693;54.370;10.132;2022-08-11T14:29:09;36.30;1.00
13253;DHT22;6693;54.370;10.132;2022-08-11T14:31:14;36.40;1.00
13253;DHT22;6693;54.370;10.132;2022-08-11T14:33:17;36.40;1.00